sensor_id;sensor_type;location;lat;lon;timestamp;pressure;altitude;pressure_sealevel;temperature;humidity
50859;BME280;36826;47.514;19.056;2022-07-23T00:00:08;100007.19;;;26.58;51.82
50859;BME280;36826;47.514;19.056;2022-07-23T00:02:34;100010.66;;;26.53;51.87
50859;BME280;36826;47.514;19.056;2022-07-23T00:04:59;100001.75;;;26.46;51.80
50859;BME280;36826;47.514;19.056;2022-07-23T00:07:25;100002.00;;;26.44;51.87
50859;BME280;36826;47.514;19.056;2022-07-23T00:09:50;99997.25;;;26.40;52.34
50859;BME280;36826;47.514;19.056;2022-07-23T00:12:16;99993.06;;;26.37;52.37
50859;BME280;36826;47.514;19.056;2022-07-23T00:14:41;99988.31;;;26.32;52.42
50859;BME280;36826;47.514;19.056;2022-07-23T00:17:07;99992.63;;;26.28;52.48
50859;BME280;36826;47.514;19.056;2022-07-23T00:19:32;99995.88;;;26.25;52.23
50859;BME280;36826;47.514;19.056;2022-07-23T00:21:58;99998.25;;;26.22;52.45
50859;BME280;36826;47.514;19.056;2022-07-23T00:24:23;99999.59;;;26.19;52.88
50859;BME280;36826;47.514;19.056;2022-07-23T00:26:48;100000.66;;;26.18;53.09
50859;BME280;36826;47.514;19.056;2022-07-23T00:29:14;100001.72;;;26.17;52.84
50859;BME280;36826;47.514;19.056;2022-07-23T00:31:39;100003.59;;;26.28;53.36
50859;BME280;36826;47.514;19.056;2022-07-23T00:34:05;100005.25;;;26.29;53.15
50859;BME280;36826;47.514;19.056;2022-07-23T00:36:31;100006.94;;;26.30;52.83
50859;BME280;36826;47.514;19.056;2022-07-23T00:38:56;100010.75;;;26.29;52.32
50859;BME280;36826;47.514;19.056;2022-07-23T00:41:22;100020.66;;;26.30;51.54
50859;BME280;36826;47.514;19.056;2022-07-23T00:43:47;100015.09;;;26.25;52.43
50859;BME280;36826;47.514;19.056;2022-07-23T00:46:19;100018.06;;;26.24;51.17
50859;BME280;36826;47.514;19.056;2022-07-23T00:48:44;100014.84;;;26.15;50.66
50859;BME280;36826;47.514;19.056;2022-07-23T00:51:10;100023.81;;;26.10;51.16
50859;BME280;36826;47.514;19.056;2022-07-23T00:53:35;100022.25;;;26.02;51.22
50859;BME280;36826;47.514;19.056;2022-07-23T00:56:00;100024.19;;;25.90;51.68
50859;BME280;36826;47.514;19.056;2022-07-23T00:58:26;100023.16;;;25.79;52.25
50859;BME280;36826;47.514;19.056;2022-07-23T01:00:51;100020.44;;;25.67;52.77
50859;BME280;36826;47.514;19.056;2022-07-23T01:03:17;100019.34;;;25.56;53.34
50859;BME280;36826;47.514;19.056;2022-07-23T01:05:42;100024.50;;;25.53;53.54
50859;BME280;36826;47.514;19.056;2022-07-23T01:08:08;100019.97;;;25.47;53.61
50859;BME280;36826;47.514;19.056;2022-07-23T01:10:33;100020.44;;;25.43;53.91
50859;BME280;36826;47.514;19.056;2022-07-23T01:13:01;100011.63;;;25.41;54.28
50859;BME280;36826;47.514;19.056;2022-07-23T01:15:28;100017.53;;;25.38;54.59
50859;BME280;36826;47.514;19.056;2022-07-23T01:17:53;100017.09;;;25.41;55.09
50859;BME280;36826;47.514;19.056;2022-07-23T01:20:19;100011.63;;;25.41;55.82
50859;BME280;36826;47.514;19.056;2022-07-23T01:22:45;100011.63;;;25.41;56.36
50859;BME280;36826;47.514;19.056;2022-07-23T01:25:11;100004.91;;;25.37;56.18
50859;BME280;36826;47.514;19.056;2022-07-23T01:27:36;100005.88;;;25.31;56.23
50859;BME280;36826;47.514;19.056;2022-07-23T01:30:03;100019.44;;;25.26;56.51
50859;BME280;36826;47.514;19.056;2022-07-23T01:32:29;100014.94;;;25.20;56.50
50859;BME280;36826;47.514;19.056;2022-07-23T01:34:54;100017.78;;;25.13;56.42
50859;BME280;36826;47.514;19.056;2022-07-23T01:37:20;100008.97;;;25.11;56.70
50859;BME280;36826;47.514;19.056;2022-07-23T01:39:45;100017.88;;;25.06;56.46
50859;BME280;36826;47.514;19.056;2022-07-23T01:42:11;100013.13;;;25.02;56.29
50859;BME280;36826;47.514;19.056;2022-07-23T01:44:36;100015.25;;;25.00;55.90
50859;BME280;36826;47.514;19.056;2022-07-23T01:47:02;100012.72;;;24.98;55.69
50859;BME280;36826;47.514;19.056;2022-07-23T01:49:27;100009.44;;;24.96;55.36
50859;BME280;36826;47.514;19.056;2022-07-23T01:51:53;100017.03;;;24.94;55.39
50859;BME280;36826;47.514;19.056;2022-07-23T01:54:28;100020.59;;;24.94;55.44
50859;BME280;36826;47.514;19.056;2022-07-23T01:56:53;100014.66;;;24.97;55.93
50859;BME280;36826;47.514;19.056;2022-07-23T01:59:19;100012.38;;;24.94;56.16
50859;BME280;36826;47.514;19.056;2022-07-23T02:01:45;100010.94;;;24.92;56.47
50859;BME280;36826;47.514;19.056;2022-07-23T02:04:10;100019.16;;;24.92;56.46
50859;BME280;36826;47.514;19.056;2022-07-23T02:06:36;100020.59;;;24.94;56.93
50859;BME280;36826;47.514;19.056;2022-07-23T02:09:01;100005.84;;;24.95;57.24
50859;BME280;36826;47.514;19.056;2022-07-23T02:11:26;100003.34;;;24.94;57.55
50859;BME280;36826;47.514;19.056;2022-07-23T02:13:52;100004.06;;;24.89;57.50
50859;BME280;36826;47.514;19.056;2022-07-23T02:16:17;100000.81;;;24.80;57.52
50859;BME280;36826;47.514;19.056;2022-07-23T02:18:42;99998.53;;;24.77;57.75
50859;BME280;36826;47.514;19.056;2022-07-23T02:21:08;100002.81;;;24.73;58.08
50859;BME280;36826;47.514;19.056;2022-07-23T02:23:33;100001.38;;;24.71;58.32
50859;BME280;36826;47.514;19.056;2022-07-23T02:25:59;100000.97;;;24.67;58.69
50859;BME280;36826;47.514;19.056;2022-07-23T02:28:24;100000.13;;;24.66;59.08
50859;BME280;36826;47.514;19.056;2022-07-23T02:30:50;100003.56;;;24.62;59.53
50859;BME280;36826;47.514;19.056;2022-07-23T02:33:15;100003.91;;;24.54;59.78
50859;BME280;36826;47.514;19.056;2022-07-23T02:35:41;100010.91;;;24.49;59.23
50859;BME280;36826;47.514;19.056;2022-07-23T02:38:06;100009.25;;;24.48;58.98
50859;BME280;36826;47.514;19.056;2022-07-23T02:40:32;100007.81;;;24.46;58.65
50859;BME280;36826;47.514;19.056;2022-07-23T02:42:57;100007.13;;;24.50;58.27
50859;BME280;36826;47.514;19.056;2022-07-23T02:45:23;100013.91;;;24.48;58.06
50859;BME280;36826;47.514;19.056;2022-07-23T02:47:48;100011.38;;;24.46;58.30
50859;BME280;36826;47.514;19.056;2022-07-23T02:50:14;100016.84;;;24.46;57.89
50859;BME280;36826;47.514;19.056;2022-07-23T02:52:39;100009.72;;;24.45;58.08
50859;BME280;36826;47.514;19.056;2022-07-23T02:55:05;100008.06;;;24.44;57.51
50859;BME280;36826;47.514;19.056;2022-07-23T02:57:31;100009.13;;;24.43;57.19
50859;BME280;36826;47.514;19.056;2022-07-23T02:59:56;100006.66;;;24.54;57.56
50859;BME280;36826;47.514;19.056;2022-07-23T03:02:21;100000.22;;;24.60;57.30
50859;BME280;36826;47.514;19.056;2022-07-23T03:04:47;100008.59;;;24.65;57.07
50859;BME280;36826;47.514;19.056;2022-07-23T03:07:12;100000.38;;;24.65;57.10
50859;BME280;36826;47.514;19.056;2022-07-23T03:09:38;100003.97;;;24.65;56.72
50859;BME280;36826;47.514;19.056;2022-07-23T03:12:03;100009.84;;;24.69;56.63
50859;BME280;36826;47.514;19.056;2022-07-23T03:14:29;100008.78;;;24.70;56.87
50859;BME280;36826;47.514;19.056;2022-07-23T03:16:55;100012.22;;;24.77;56.49
50859;BME280;36826;47.514;19.056;2022-07-23T03:19:20;100009.63;;;24.83;56.08
50859;BME280;36826;47.514;19.056;2022-07-23T03:21:46;100009.88;;;24.93;55.60
50859;BME280;36826;47.514;19.056;2022-07-23T03:24:11;100013.47;;;25.05;54.95
50859;BME280;36826;47.514;19.056;2022-07-23T03:26:37;100007.88;;;25.12;54.94
50859;BME280;36826;47.514;19.056;2022-07-23T03:29:02;100013.50;;;25.29;54.79
50859;BME280;36826;47.514;19.056;2022-07-23T03:31:29;100012.53;;;25.71;53.37
50859;BME280;36826;47.514;19.056;2022-07-23T03:33:56;100019.22;;;25.87;52.97
50859;BME280;36826;47.514;19.056;2022-07-23T03:36:21;100011.78;;;26.11;52.25
50859;BME280;36826;47.514;19.056;2022-07-23T03:38:47;100012.63;;;26.41;51.40
50859;BME280;36826;47.514;19.056;2022-07-23T03:41:12;100007.34;;;26.51;50.09
50859;BME280;36826;47.514;19.056;2022-07-23T03:43:37;100010.91;;;27.32;48.59
50859;BME280;36826;47.514;19.056;2022-07-23T03:46:03;100014.56;;;27.94;46.87
50859;BME280;36826;47.514;19.056;2022-07-23T03:48:28;100013.09;;;28.58;45.51
50859;BME280;36826;47.514;19.056;2022-07-23T03:50:54;100016.19;;;29.27;43.37
50859;BME280;36826;47.514;19.056;2022-07-23T03:53:19;100015.19;;;29.86;41.63
50859;BME280;36826;47.514;19.056;2022-07-23T03:55:45;100013.19;;;30.45;39.85
50859;BME280;36826;47.514;19.056;2022-07-23T03:58:10;100017.16;;;30.96;38.79
50859;BME280;36826;47.514;19.056;2022-07-23T04:00:35;100017.72;;;31.34;38.32
50859;BME280;36826;47.514;19.056;2022-07-23T04:03:01;100018.69;;;31.95;36.97
50859;BME280;36826;47.514;19.056;2022-07-23T04:05:27;100021.88;;;32.33;36.17
50859;BME280;36826;47.514;19.056;2022-07-23T04:07:52;100017.69;;;32.75;35.44
50859;BME280;36826;47.514;19.056;2022-07-23T04:10:17;100019.34;;;33.16;34.75
50859;BME280;36826;47.514;19.056;2022-07-23T04:12:43;100023.97;;;33.56;34.50
50859;BME280;36826;47.514;19.056;2022-07-23T04:15:08;100017.97;;;33.14;34.42
50859;BME280;36826;47.514;19.056;2022-07-23T04:17:34;100030.59;;;33.25;34.36
50859;BME280;36826;47.514;19.056;2022-07-23T04:19:59;100028.94;;;33.83;33.98
50859;BME280;36826;47.514;19.056;2022-07-23T04:22:25;100030.34;;;33.80;33.72
50859;BME280;36826;47.514;19.056;2022-07-23T04:24:50;100028.41;;;34.05;32.92
50859;BME280;36826;47.514;19.056;2022-07-23T04:27:16;100035.91;;;34.05;32.85
50859;BME280;36826;47.514;19.056;2022-07-23T04:29:41;100033.31;;;32.61;33.78
50859;BME280;36826;47.514;19.056;2022-07-23T04:32:06;100023.59;;;32.13;34.59
50859;BME280;36826;47.514;19.056;2022-07-23T04:34:32;100021.59;;;31.43;36.13
50859;BME280;36826;47.514;19.056;2022-07-23T04:36:57;100031.56;;;31.18;37.57
50859;BME280;36826;47.514;19.056;2022-07-23T04:39:23;100027.09;;;31.53;37.09
50859;BME280;36826;47.514;19.056;2022-07-23T04:41:48;100039.69;;;32.62;35.45
50859;BME280;36826;47.514;19.056;2022-07-23T04:44:14;100036.88;;;33.95;33.54
50859;BME280;36826;47.514;19.056;2022-07-23T04:46:39;100036.41;;;34.88;31.68
50859;BME280;36826;47.514;19.056;2022-07-23T04:49:05;100053.16;;;35.83;30.50
50859;BME280;36826;47.514;19.056;2022-07-23T04:51:30;100044.88;;;35.50;30.29
50859;BME280;36826;47.514;19.056;2022-07-23T04:53:56;100049.81;;;34.86;31.04
50859;BME280;36826;47.514;19.056;2022-07-23T04:56:22;100047.03;;;35.06;30.89
50859;BME280;36826;47.514;19.056;2022-07-23T04:58:47;100051.75;;;35.05;30.93
50859;BME280;36826;47.514;19.056;2022-07-23T05:01:13;100048.44;;;35.36;30.65
50859;BME280;36826;47.514;19.056;2022-07-23T05:03:38;100046.94;;;35.58;30.92
50859;BME280;36826;47.514;19.056;2022-07-23T05:06:04;100048.00;;;36.46;29.33
50859;BME280;36826;47.514;19.056;2022-07-23T05:08:29;100033.13;;;36.22;29.80
50859;BME280;36826;47.514;19.056;2022-07-23T05:10:55;100038.00;;;36.03;29.41
50859;BME280;36826;47.514;19.056;2022-07-23T05:13:21;100030.03;;;36.97;28.67
50859;BME280;36826;47.514;19.056;2022-07-23T05:15:46;100034.88;;;37.69;26.70
50859;BME280;36826;47.514;19.056;2022-07-23T05:18:12;100034.84;;;38.00;27.11
50859;BME280;36826;47.514;19.056;2022-07-23T05:20:38;100038.34;;;38.24;26.00
50859;BME280;36826;47.514;19.056;2022-07-23T05:23:03;100033.22;;;40.09;25.36
50859;BME280;36826;47.514;19.056;2022-07-23T05:25:29;100041.09;;;41.34;23.65
50859;BME280;36826;47.514;19.056;2022-07-23T05:27:55;100034.84;;;41.86;22.97
50859;BME280;36826;47.514;19.056;2022-07-23T05:30:20;100032.94;;;41.53;22.88
50859;BME280;36826;47.514;19.056;2022-07-23T05:32:46;100041.75;;;41.77;22.38
50859;BME280;36826;47.514;19.056;2022-07-23T05:35:12;100039.38;;;42.41;21.59
50859;BME280;36826;47.514;19.056;2022-07-23T05:37:37;100045.34;;;42.52;21.54
50859;BME280;36826;47.514;19.056;2022-07-23T05:40:08;100047.75;;;43.22;20.84
50859;BME280;36826;47.514;19.056;2022-07-23T05:42:35;100044.66;;;41.80;21.89
50859;BME280;36826;47.514;19.056;2022-07-23T05:45:01;100043.28;;;41.49;21.26
50859;BME280;36826;47.514;19.056;2022-07-23T05:47:26;100032.34;;;40.47;21.58
50859;BME280;36826;47.514;19.056;2022-07-23T05:49:51;100038.03;;;41.26;21.24
50859;BME280;36826;47.514;19.056;2022-07-23T05:52:17;100034.41;;;41.26;21.25
50859;BME280;36826;47.514;19.056;2022-07-23T05:54:42;100038.56;;;42.81;19.99
50859;BME280;36826;47.514;19.056;2022-07-23T05:57:08;100035.69;;;43.10;19.63
50859;BME280;36826;47.514;19.056;2022-07-23T05:59:33;100039.94;;;43.32;19.38
50859;BME280;36826;47.514;19.056;2022-07-23T06:01:59;100043.22;;;42.49;19.94
50859;BME280;36826;47.514;19.056;2022-07-23T06:04:24;100041.03;;;43.27;19.31
50859;BME280;36826;47.514;19.056;2022-07-23T06:06:50;100037.16;;;44.16;18.98
50859;BME280;36826;47.514;19.056;2022-07-23T06:09:15;100041.13;;;43.79;18.87
50859;BME280;36826;47.514;19.056;2022-07-23T06:11:41;100026.41;;;44.21;18.67
50859;BME280;36826;47.514;19.056;2022-07-23T06:14:06;100025.06;;;44.51;18.12
50859;BME280;36826;47.514;19.056;2022-07-23T06:16:32;100017.81;;;44.93;18.14
50859;BME280;36826;47.514;19.056;2022-07-23T06:18:57;100026.19;;;43.94;17.80
50859;BME280;36826;47.514;19.056;2022-07-23T06:21:23;100017.66;;;45.75;17.02
50859;BME280;36826;47.514;19.056;2022-07-23T06:23:48;100018.75;;;46.51;15.54
50859;BME280;36826;47.514;19.056;2022-07-23T06:26:13;100016.28;;;46.80;15.64
50859;BME280;36826;47.514;19.056;2022-07-23T06:28:39;100017.66;;;46.02;16.28
50859;BME280;36826;47.514;19.056;2022-07-23T06:31:04;100022.00;;;47.25;15.72
50859;BME280;36826;47.514;19.056;2022-07-23T06:33:30;100020.13;;;47.47;15.62
50859;BME280;36826;47.514;19.056;2022-07-23T06:35:55;100021.81;;;48.04;14.99
50859;BME280;36826;47.514;19.056;2022-07-23T06:38:20;100017.94;;;47.74;15.48
50859;BME280;36826;47.514;19.056;2022-07-23T06:40:46;100012.75;;;46.29;16.46
50859;BME280;36826;47.514;19.056;2022-07-23T06:43:11;100020.41;;;45.48;17.26
50859;BME280;36826;47.514;19.056;2022-07-23T06:45:37;100019.31;;;44.67;17.31
50859;BME280;36826;47.514;19.056;2022-07-23T06:48:03;100011.34;;;46.42;16.58
50859;BME280;36826;47.514;19.056;2022-07-23T06:50:28;100017.28;;;46.03;16.27
50859;BME280;36826;47.514;19.056;2022-07-23T06:52:54;100018.88;;;47.41;15.44
50859;BME280;36826;47.514;19.056;2022-07-23T06:55:19;100008.69;;;48.59;14.85
50859;BME280;36826;47.514;19.056;2022-07-23T06:57:45;100019.19;;;48.51;14.81
50859;BME280;36826;47.514;19.056;2022-07-23T07:00:10;100020.84;;;48.56;14.97
50859;BME280;36826;47.514;19.056;2022-07-23T07:02:36;100010.75;;;48.76;14.45
50859;BME280;36826;47.514;19.056;2022-07-23T07:05:02;100012.09;;;49.51;14.26
50859;BME280;36826;47.514;19.056;2022-07-23T07:07:28;100012.44;;;49.89;13.64
50859;BME280;36826;47.514;19.056;2022-07-23T07:09:53;100009.78;;;50.60;13.26
50859;BME280;36826;47.514;19.056;2022-07-23T07:12:19;100003.63;;;50.69;13.35
50859;BME280;36826;47.514;19.056;2022-07-23T07:14:44;99993.44;;;50.68;13.23
50859;BME280;36826;47.514;19.056;2022-07-23T07:17:10;100010.84;;;49.78;13.39
50859;BME280;36826;47.514;19.056;2022-07-23T07:19:36;99991.31;;;48.86;14.21
50859;BME280;36826;47.514;19.056;2022-07-23T07:22:02;99998.28;;;47.02;15.55
50859;BME280;36826;47.514;19.056;2022-07-23T07:24:27;99997.09;;;48.12;14.48
50859;BME280;36826;47.514;19.056;2022-07-23T07:26:53;99995.59;;;47.62;14.94
50859;BME280;36826;47.514;19.056;2022-07-23T07:29:18;99989.34;;;46.32;15.92
50859;BME280;36826;47.514;19.056;2022-07-23T07:31:44;99992.19;;;46.32;16.13
50859;BME280;36826;47.514;19.056;2022-07-23T07:34:10;99998.56;;;47.31;15.25
50859;BME280;36826;47.514;19.056;2022-07-23T07:36:35;99996.19;;;47.37;15.26
50859;BME280;36826;47.514;19.056;2022-07-23T07:39:03;100000.78;;;47.11;15.20
50859;BME280;36826;47.514;19.056;2022-07-23T07:41:30;99997.63;;;47.20;14.93
50859;BME280;36826;47.514;19.056;2022-07-23T07:43:56;99991.16;;;47.20;15.14
50859;BME280;36826;47.514;19.056;2022-07-23T07:46:21;99990.03;;;47.80;14.69
50859;BME280;36826;47.514;19.056;2022-07-23T07:48:49;99987.25;;;49.01;13.87
50859;BME280;36826;47.514;19.056;2022-07-23T07:51:15;99987.66;;;48.99;13.79
50859;BME280;36826;47.514;19.056;2022-07-23T07:53:40;99987.25;;;49.81;13.44
50859;BME280;36826;47.514;19.056;2022-07-23T07:56:06;99987.03;;;50.46;13.12
50859;BME280;36826;47.514;19.056;2022-07-23T07:58:31;99992.50;;;51.42;12.47
50859;BME280;36826;47.514;19.056;2022-07-23T08:00:57;99980.56;;;52.31;12.06
50859;BME280;36826;47.514;19.056;2022-07-23T08:03:22;99983.78;;;52.64;11.79
50859;BME280;36826;47.514;19.056;2022-07-23T08:05:48;99986.53;;;52.71;11.31
50859;BME280;36826;47.514;19.056;2022-07-23T08:08:13;99984.75;;;51.42;12.11
50859;BME280;36826;47.514;19.056;2022-07-23T08:10:42;99989.22;;;51.44;11.76
50859;BME280;36826;47.514;19.056;2022-07-23T08:13:12;99985.84;;;50.40;12.57
50859;BME280;36826;47.514;19.056;2022-07-23T08:15:39;99990.09;;;49.01;13.30
50859;BME280;36826;47.514;19.056;2022-07-23T08:18:05;99983.59;;;49.69;13.16
50859;BME280;36826;47.514;19.056;2022-07-23T08:20:30;99986.69;;;51.07;12.38
50859;BME280;36826;47.514;19.056;2022-07-23T08:22:58;99992.97;;;49.08;12.82
50859;BME280;36826;47.514;19.056;2022-07-23T08:25:29;99982.41;;;48.98;13.26
50859;BME280;36826;47.514;19.056;2022-07-23T08:27:56;99981.88;;;48.56;13.25
50859;BME280;36826;47.514;19.056;2022-07-23T08:30:22;99986.03;;;47.92;13.59
50859;BME280;36826;47.514;19.056;2022-07-23T08:33:09;99979.06;;;46.47;14.87
50859;BME280;36826;47.514;19.056;2022-07-23T08:35:41;99977.91;;;47.90;14.03
50859;BME280;36826;47.514;19.056;2022-07-23T08:38:09;99975.88;;;48.94;13.40
50859;BME280;36826;47.514;19.056;2022-07-23T08:40:38;99985.28;;;49.52;13.21
50859;BME280;36826;47.514;19.056;2022-07-23T08:43:05;99974.25;;;48.93;12.92
50859;BME280;36826;47.514;19.056;2022-07-23T08:45:35;99980.63;;;48.43;13.40
50859;BME280;36826;47.514;19.056;2022-07-23T08:48:02;99973.78;;;49.99;12.75
50859;BME280;36826;47.514;19.056;2022-07-23T08:50:29;99972.25;;;49.55;12.45
50859;BME280;36826;47.514;19.056;2022-07-23T08:52:54;99974.78;;;46.64;14.53
50859;BME280;36826;47.514;19.056;2022-07-23T08:55:22;99976.34;;;46.58;14.48
50859;BME280;36826;47.514;19.056;2022-07-23T08:57:49;99966.63;;;45.68;15.59
50859;BME280;36826;47.514;19.056;2022-07-23T09:00:16;99968.16;;;47.28;14.61
50859;BME280;36826;47.514;19.056;2022-07-23T09:02:42;99958.25;;;46.02;14.82
50859;BME280;36826;47.514;19.056;2022-07-23T09:05:09;99961.69;;;45.88;15.48
50859;BME280;36826;47.514;19.056;2022-07-23T09:07:36;99958.00;;;46.48;14.96
50859;BME280;36826;47.514;19.056;2022-07-23T09:10:10;99954.19;;;47.54;14.69
50859;BME280;36826;47.514;19.056;2022-07-23T09:12:37;99949.94;;;49.50;12.97
50859;BME280;36826;47.514;19.056;2022-07-23T09:15:07;99946.09;;;45.47;15.85
50859;BME280;36826;47.514;19.056;2022-07-23T09:17:38;99952.75;;;45.12;16.00
50859;BME280;36826;47.514;19.056;2022-07-23T09:20:22;99957.19;;;45.60;16.00
50859;BME280;36826;47.514;19.056;2022-07-23T09:22:48;99950.56;;;47.60;14.39
50859;BME280;36826;47.514;19.056;2022-07-23T09:25:16;99938.97;;;47.91;14.04
50859;BME280;36826;47.514;19.056;2022-07-23T09:30:14;99952.09;;;43.97;17.03
50859;BME280;36826;47.514;19.056;2022-07-23T09:32:39;99946.63;;;45.30;16.06
50859;BME280;36826;47.514;19.056;2022-07-23T09:35:06;99952.72;;;46.13;15.63
50859;BME280;36826;47.514;19.056;2022-07-23T09:37:31;99951.63;;;46.55;15.33
50859;BME280;36826;47.514;19.056;2022-07-23T09:40:09;99945.72;;;48.42;13.82
50859;BME280;36826;47.514;19.056;2022-07-23T09:42:37;99952.06;;;48.10;13.73
50859;BME280;36826;47.514;19.056;2022-07-23T09:45:03;99943.28;;;46.35;14.99
50859;BME280;36826;47.514;19.056;2022-07-23T09:47:31;99943.84;;;47.27;14.55
50859;BME280;36826;47.514;19.056;2022-07-23T09:50:05;99944.56;;;47.73;14.16
50859;BME280;36826;47.514;19.056;2022-07-23T09:52:40;99938.34;;;45.68;15.66
50859;BME280;36826;47.514;19.056;2022-07-23T09:55:07;99931.25;;;45.04;15.72
50859;BME280;36826;47.514;19.056;2022-07-23T09:57:33;99928.91;;;45.87;15.34
50859;BME280;36826;47.514;19.056;2022-07-23T10:00:02;99929.16;;;46.73;14.52
50859;BME280;36826;47.514;19.056;2022-07-23T10:02:31;99927.47;;;47.58;13.66
50859;BME280;36826;47.514;19.056;2022-07-23T10:04:57;99925.38;;;48.26;13.57
50859;BME280;36826;47.514;19.056;2022-07-23T10:07:25;99930.72;;;47.60;13.92
50859;BME280;36826;47.514;19.056;2022-07-23T10:09:52;99925.66;;;46.87;14.51
50859;BME280;36826;47.514;19.056;2022-07-23T10:12:18;99925.25;;;47.33;13.98
50859;BME280;36826;47.514;19.056;2022-07-23T10:15:04;99929.88;;;47.08;14.22
50859;BME280;36826;47.514;19.056;2022-07-23T10:17:31;99921.69;;;46.54;14.59
50859;BME280;36826;47.514;19.056;2022-07-23T10:19:57;99914.78;;;45.60;15.26
50859;BME280;36826;47.514;19.056;2022-07-23T10:22:23;99916.88;;;45.36;15.66
50859;BME280;36826;47.514;19.056;2022-07-23T10:25:17;99908.75;;;44.65;15.95
50859;BME280;36826;47.514;19.056;2022-07-23T10:30:28;99916.50;;;44.48;16.04
50859;BME280;36826;47.514;19.056;2022-07-23T10:36:19;99903.16;;;44.45;16.56
50859;BME280;36826;47.514;19.056;2022-07-23T10:39:03;99902.53;;;44.16;16.72
50859;BME280;36826;47.514;19.056;2022-07-23T10:41:33;99895.94;;;42.44;18.18
50859;BME280;36826;47.514;19.056;2022-07-23T10:44:15;99906.56;;;42.23;18.00
50859;BME280;36826;47.514;19.056;2022-07-23T10:46:55;99894.91;;;41.55;18.93
50859;BME280;36826;47.514;19.056;2022-07-23T10:49:28;99893.06;;;40.76;19.70
50859;BME280;36826;47.514;19.056;2022-07-23T10:52:28;99888.00;;;40.69;19.66
50859;BME280;36826;47.514;19.056;2022-07-23T10:54:54;99878.81;;;40.93;19.52
50859;BME280;36826;47.514;19.056;2022-07-23T10:57:23;99880.19;;;40.75;19.46
50859;BME280;36826;47.514;19.056;2022-07-23T11:02:33;99872.22;;;39.67;20.52
50859;BME280;36826;47.514;19.056;2022-07-23T11:05:03;99877.91;;;39.80;20.27
50859;BME280;36826;47.514;19.056;2022-07-23T11:07:29;99869.56;;;39.41;20.67
50859;BME280;36826;47.514;19.056;2022-07-23T11:09:54;99871.34;;;39.46;20.94
50859;BME280;36826;47.514;19.056;2022-07-23T11:15:12;99857.03;;;40.11;19.84
50859;BME280;36826;47.514;19.056;2022-07-23T11:20:23;99871.53;;;40.68;19.01
50859;BME280;36826;47.514;19.056;2022-07-23T11:27:50;99848.78;;;41.56;18.10
50859;BME280;36826;47.514;19.056;2022-07-23T11:32:55;99850.78;;;41.18;18.64
50859;BME280;36826;47.514;19.056;2022-07-23T11:35:41;99852.25;;;40.78;18.77
50859;BME280;36826;47.514;19.056;2022-07-23T11:38:14;99857.28;;;40.39;19.24
50859;BME280;36826;47.514;19.056;2022-07-23T11:40:40;99839.88;;;39.70;19.02
50859;BME280;36826;47.514;19.056;2022-07-23T11:43:10;99827.66;;;39.74;19.27
50859;BME280;36826;47.514;19.056;2022-07-23T11:45:38;99832.28;;;39.92;19.02
50859;BME280;36826;47.514;19.056;2022-07-23T11:48:09;99834.06;;;39.96;19.08
50859;BME280;36826;47.514;19.056;2022-07-23T11:50:35;99820.69;;;40.02;18.80
50859;BME280;36826;47.514;19.056;2022-07-23T11:53:01;99823.41;;;39.68;19.21
50859;BME280;36826;47.514;19.056;2022-07-23T11:55:27;99814.09;;;39.55;19.37
50859;BME280;36826;47.514;19.056;2022-07-23T11:57:54;99822.38;;;39.52;19.68
50859;BME280;36826;47.514;19.056;2022-07-23T12:00:22;99810.41;;;39.64;19.95
50859;BME280;36826;47.514;19.056;2022-07-23T12:02:55;99808.88;;;39.75;19.96
50859;BME280;36826;47.514;19.056;2022-07-23T12:05:23;99803.03;;;40.01;19.71
50859;BME280;36826;47.514;19.056;2022-07-23T12:07:54;99806.66;;;40.35;19.22
50859;BME280;36826;47.514;19.056;2022-07-23T12:10:22;99790.03;;;40.18;19.55
50859;BME280;36826;47.514;19.056;2022-07-23T12:12:49;99798.66;;;39.92;19.39
50859;BME280;36826;47.514;19.056;2022-07-23T12:15:17;99793.59;;;39.85;19.55
50859;BME280;36826;47.514;19.056;2022-07-23T12:17:46;99790.66;;;39.81;19.45
50859;BME280;36826;47.514;19.056;2022-07-23T12:20:14;99790.19;;;40.13;19.61
50859;BME280;36826;47.514;19.056;2022-07-23T12:22:42;99782.94;;;40.12;19.28
50859;BME280;36826;47.514;19.056;2022-07-23T12:25:16;99768.00;;;40.08;19.56
50859;BME280;36826;47.514;19.056;2022-07-23T12:27:43;99783.44;;;40.14;19.43
50859;BME280;36826;47.514;19.056;2022-07-23T12:32:47;99771.97;;;40.40;19.44
50859;BME280;36826;47.514;19.056;2022-07-23T12:35:13;99768.38;;;40.89;18.57
50859;BME280;36826;47.514;19.056;2022-07-23T12:37:43;99770.97;;;40.70;18.42
50859;BME280;36826;47.514;19.056;2022-07-23T12:40:46;99775.16;;;40.76;18.32
50859;BME280;36826;47.514;19.056;2022-07-23T12:45:54;99758.06;;;39.77;18.70
50859;BME280;36826;47.514;19.056;2022-07-23T12:48:20;99754.22;;;39.81;18.71
50859;BME280;36826;47.514;19.056;2022-07-23T12:50:56;99757.44;;;39.71;18.95
50859;BME280;36826;47.514;19.056;2022-07-23T12:53:27;99748.19;;;39.70;18.95
50859;BME280;36826;47.514;19.056;2022-07-23T12:56:00;99746.34;;;39.96;19.01
50859;BME280;36826;47.514;19.056;2022-07-23T12:58:26;99747.06;;;39.29;19.13
50859;BME280;36826;47.514;19.056;2022-07-23T13:03:42;99738.19;;;38.97;19.61
50859;BME280;36826;47.514;19.056;2022-07-23T13:06:09;99736.81;;;38.82;19.43
50859;BME280;36826;47.514;19.056;2022-07-23T13:08:37;99735.31;;;38.46;19.49
50859;BME280;36826;47.514;19.056;2022-07-23T13:11:04;99725.25;;;38.54;19.65
50859;BME280;36826;47.514;19.056;2022-07-23T13:13:30;99732.34;;;38.42;19.77
50859;BME280;36826;47.514;19.056;2022-07-23T13:15:57;99737.66;;;38.35;20.15